Time;durP1;ratioP1;P1;durP2;ratioP2;P2;SDS_P1;SDS_P2;PMS_P1;PMS_P2;Temp;Humidity;BMP_temperature;BMP_pressure;BME280_temperature;BME280_humidity;BME280_pressure;Samples;Min_cycle;Max_cycle;Signal;HPM_P1;HPM_P2
2023/08/05 00:00:04;;;;;;;2.85;2.05;;;16.10;99.90;;;;;;5108966;28;20049;-63
2023/08/05 00:02:36;;;;;;;2.97;2.45;;;16.10;99.90;;;;;;5086716;28;20055;-65
2023/08/05 00:05:09;;;;;;;3.78;2.45;;;16.10;99.90;;;;;;5092194;28;20044;-65
2023/08/05 00:07:41;;;;;;;2.55;2.03;;;16.10;99.90;;;;;;5162084;28;20338;-64
2023/08/05 00:10:15;;;;;;;3.47;2.85;;;16.10;99.90;;;;;;5159033;28;20054;-65
2023/08/05 00:12:49;;;;;;;3.60;2.47;;;16.00;99.90;;;;;;5074944;28;20051;-67
2023/08/05 00:15:21;;;;;;;;;;;16.00;99.90;;;;;;5107746;28;20040;-67
2023/08/05 00:17:52;;;;;;;2.53;1.90;;;16.00;99.90;;;;;;5094578;29;19922;-66
2023/08/05 00:20:24;;;;;;;2.25;2.05;;;16.00;99.90;;;;;;5089001;28;20071;-64
2023/08/05 00:22:58;;;;;;;2.83;1.90;;;16.00;99.90;;;;;;5094118;28;20048;-63
2023/08/05 00:25:30;;;;;;;;;;;16.00;99.90;;;;;;5091211;28;20043;-65
2023/08/05 00:28:01;;;;;;;2.00;1.90;;;15.90;99.90;;;;;;5153266;28;19945;-65
2023/08/05 00:30:36;;;;;;;2.38;1.92;;;16.00;99.90;;;;;;5135740;28;20047;-66
2023/08/05 00:33:07;;;;;;;2.35;1.90;;;16.00;99.90;;;;;;5108951;28;20043;-66
2023/08/05 00:35:49;;;;;;;2.33;1.73;;;16.00;99.90;;;;;;5065109;28;20047;-66
2023/08/05 00:38:21;;;;;;;2.10;1.90;;;15.90;99.90;;;;;;5080179;29;20111;-66
2023/08/05 00:40:52;;;;;;;3.42;1.88;;;16.00;99.90;;;;;;5088678;29;20707;-64
2023/08/05 00:43:24;;;;;;;2.33;2.10;;;16.00;99.90;;;;;;5097296;29;20110;-64
2023/08/05 00:45:57;;;;;;;1.85;1.63;;;15.90;99.90;;;;;;5089670;28;20044;-66
2023/08/05 00:48:29;;;;;;;3.20;2.47;;;15.90;99.90;;;;;;5091842;28;20155;-65
2023/08/05 00:51:03;;;;;;;2.63;1.77;;;16.00;99.90;;;;;;5084116;28;20326;-63
2023/08/05 00:53:42;;;;;;;2.30;2.10;;;16.00;99.90;;;;;;5094504;29;20057;-65
2023/08/05 00:56:20;;;;;;;2.20;1.98;;;16.00;99.90;;;;;;5120396;28;20045;-66
2023/08/05 00:58:57;;;;;;;1.92;1.73;;;16.00;99.90;;;;;;5091705;28;20044;-65
2023/08/05 01:01:31;;;;;;;2.42;1.45;;;16.00;99.90;;;;;;5084748;23;20043;-85
2023/08/05 01:04:05;;;;;;;2.15;1.80;;;16.00;99.90;;;;;;5103468;29;20039;-85
2023/08/05 01:06:37;;;;;;;2.03;1.80;;;16.10;99.90;;;;;;5103688;29;20027;-85
2023/08/05 01:09:09;;;;;;;2.85;1.73;;;16.10;99.90;;;;;;5119220;28;20325;-85
2023/08/05 01:11:44;;;;;;;3.67;1.70;;;16.10;99.90;;;;;;5120605;28;20043;-85
2023/08/05 01:14:21;;;;;;;2.10;1.65;;;16.10;99.90;;;;;;5118806;29;20058;-86
2023/08/05 01:16:52;;;;;;;1.60;1.38;;;16.10;99.90;;;;;;5200097;28;20039;-85
2023/08/05 01:19:30;;;;;;;2.22;1.90;;;16.20;99.90;;;;;;5103816;29;20050;-85
2023/08/05 01:22:10;;;;;;;1.50;1.40;;;16.20;99.90;;;;;;5088587;29;20031;-85
2023/08/05 01:25:06;;;;;;;1.30;1.20;;;16.20;99.90;;;;;;5134880;29;20035;-85
2023/08/05 01:27:39;;;;;;;2.03;1.60;;;16.30;99.90;;;;;;5108391;29;20039;-87
2023/08/05 01:30:10;;;;;;;1.50;1.40;;;16.30;99.90;;;;;;5108530;29;20051;-88
2023/08/05 01:32:45;;;;;;;2.38;1.80;;;16.30;99.90;;;;;;5120931;28;20034;-87
2023/08/05 01:35:21;;;;;;;1.73;1.52;;;16.20;99.90;;;;;;5120009;28;20049;-87
2023/08/05 01:37:53;;;;;;;1.95;1.50;;;16.20;99.90;;;;;;5202046;28;20229;-86
2023/08/05 01:40:28;;;;;;;1.42;1.30;;;16.30;99.90;;;;;;5102205;28;20031;-85
2023/08/05 01:43:02;;;;;;;1.75;1.50;;;16.20;99.90;;;;;;5104012;29;20042;-85
2023/08/05 01:45:37;;;;;;;1.48;1.38;;;16.20;99.90;;;;;;5125387;29;20038;-84
2023/08/05 01:48:08;;;;;;;1.92;1.73;;;16.30;99.90;;;;;;5112459;29;20035;-84
2023/08/05 01:50:40;;;;;;;1.27;1.15;;;16.30;99.90;;;;;;5112229;29;20045;-84
2023/08/05 01:53:15;;;;;;;1.63;1.35;;;16.30;99.90;;;;;;5125322;28;20329;-83
2023/08/05 01:55:50;;;;;;;1.50;1.23;;;16.40;99.90;;;;;;5107568;29;20038;-85
2023/08/05 01:58:24;;;;;;;3.63;1.42;;;16.50;99.90;;;;;;5118458;28;20045;-85
2023/08/05 02:00:58;;;;;;;1.55;1.45;;;16.50;99.90;;;;;;5102186;28;20042;-85
2023/08/05 02:03:49;;;;;;;1.42;1.30;;;16.50;99.90;;;;;;5115086;28;20041;-86
2023/08/05 02:10:15;;;;;;;;;;;16.50;99.90;;;;;;5150387;28;20038;-84
2023/08/05 02:12:47;;;;;;;1.60;1.33;;;16.50;99.90;;;;;;5121371;28;19917;-85
2023/08/05 02:15:20;;;;;;;2.00;1.35;;;16.40;99.90;;;;;;5102811;29;20035;-85
2023/08/05 02:17:58;;;;;;;2.55;1.38;;;16.40;99.90;;;;;;5103016;29;20055;-85
2023/08/05 02:20:30;;;;;;;2.75;1.27;;;16.50;99.90;;;;;;5101954;28;20039;-86
2023/08/05 02:23:09;;;;;;;;;;;16.40;99.90;;;;;;5103815;29;20036;-85
2023/08/05 02:29:27;;;;;;;2.90;1.35;;;16.30;99.90;;;;;;5149762;28;20034;-85
2023/08/05 02:31:59;;;;;;;1.85;1.45;;;16.30;99.90;;;;;;5101399;29;20043;-85
2023/08/05 02:34:33;;;;;;;1.85;1.30;;;16.20;99.90;;;;;;5102361;29;20037;-85
2023/08/05 02:37:07;;;;;;;2.33;1.33;;;16.10;99.90;;;;;;5086579;29;20333;-88
2023/08/05 02:39:40;;;;;;;1.40;1.20;;;16.10;99.90;;;;;;5102462;29;20117;-86
2023/08/05 02:42:14;;;;;;;2.13;1.48;;;16.10;99.90;;;;;;5101695;28;20047;-85
2023/08/05 02:44:49;;;;;;;2.50;1.20;;;16.00;99.90;;;;;;5102090;28;20031;-85
2023/08/05 02:47:27;;;;;;;1.02;1.02;;;16.00;99.90;;;;;;5117628;29;20037;-85
2023/08/05 02:50:01;;;;;;;1.33;1.20;;;15.90;99.90;;;;;;5120504;29;20035;-88
2023/08/05 02:52:35;;;;;;;1.77;1.35;;;15.90;99.90;;;;;;5085591;29;20039;-84
2023/08/05 02:55:07;;;;;;;1.65;1.40;;;15.80;99.90;;;;;;5136193;29;20035;-85
2023/08/05 02:57:39;;;;;;;1.65;1.55;;;15.80;99.90;;;;;;5105090;29;20039;-85
2023/08/05 03:00:12;;;;;;;1.38;1.10;;;15.80;99.90;;;;;;5104871;28;20306;-86
2023/08/05 03:02:43;;;;;;;1.50;1.40;;;15.80;99.90;;;;;;5122968;28;20043;-86
2023/08/05 03:05:15;;;;;;;1.75;1.27;;;15.80;99.90;;;;;;5105432;29;20039;-86
2023/08/05 03:07:50;;;;;;;1.30;1.20;;;15.80;99.90;;;;;;5120762;28;20035;-85
2023/08/05 03:10:23;;;;;;;2.05;1.67;;;15.90;99.90;;;;;;5106044;28;20035;-85
2023/08/05 03:12:59;;;;;;;1.23;1.13;;;15.90;99.90;;;;;;5104848;29;20041;-85
2023/08/05 03:15:38;;;;;;;1.40;1.23;;;15.90;99.90;;;;;;5189576;28;20035;-86
2023/08/05 03:18:10;;;;;;;2.50;1.58;;;15.90;99.90;;;;;;5105720;29;20031;-85
2023/08/05 03:20:44;;;;;;;1.35;1.10;;;15.90;99.90;;;;;;5104533;29;20046;-85
2023/08/05 03:23:24;;;;;;;2.08;1.70;;;15.90;99.90;;;;;;5136562;28;20031;-84
2023/08/05 03:25:55;;;;;;;2.70;1.60;;;15.90;99.90;;;;;;5126543;28;20034;-85
2023/08/05 03:28:30;;;;;;;1.63;1.52;;;15.90;99.90;;;;;;5109709;28;20045;-85
2023/08/05 03:31:02;;;;;;;1.98;1.50;;;16.00;99.90;;;;;;5105150;29;20039;-85
2023/08/05 03:33:39;;;;;;;2.13;1.30;;;16.10;99.90;;;;;;5104596;29;20038;-85
2023/08/05 03:39:58;;;;;;;2.22;1.55;;;16.30;99.90;;;;;;5153956;28;20031;-86
2023/08/05 03:42:29;;;;;;;1.48;1.38;;;16.30;99.90;;;;;;5105048;29;20039;-87
2023/08/05 03:45:01;;;;;;;1.50;1.40;;;16.30;99.90;;;;;;5105655;28;20321;-86
2023/08/05 03:47:37;;;;;;;3.45;1.33;;;16.40;99.90;;;;;;5122297;28;20045;-87
2023/08/05 03:50:28;;;;;;;1.45;1.35;;;16.30;99.90;;;;;;5122570;29;20343;-86
2023/08/05 03:53:09;;;;;;;2.70;1.33;;;16.30;99.90;;;;;;5095954;29;20039;-86
2023/08/05 03:59:48;;;;;;;2.70;1.63;;;16.40;99.90;;;;;;5156503;28;20281;-86
2023/08/05 04:02:35;;;;;;;1.63;1.52;;;16.40;99.90;;;;;;5140520;28;20045;-87
2023/08/05 04:05:23;;;;;;;1.55;1.45;;;16.40;99.90;;;;;;5139480;28;20042;-88
2023/08/05 04:08:04;;;;;;;2.03;1.33;;;16.40;99.90;;;;;;5142735;28;20039;-87
2023/08/05 04:10:39;;;;;;;1.33;1.23;;;16.40;99.90;;;;;;5109454;28;20169;-86
2023/08/05 04:13:27;;;;;;;1.70;1.60;;;16.40;99.90;;;;;;5129439;29;20037;-87
2023/08/05 04:16:16;;;;;;;1.80;1.70;;;16.40;99.90;;;;;;5143672;28;20046;-88
2023/08/05 04:19:09;;;;;;;2.40;1.80;;;16.40;99.90;;;;;;5129888;29;20039;-87
2023/08/05 04:22:22;;;;;;;2.00;1.83;;;16.40;99.90;;;;;;5154642;28;20035;-88
2023/08/05 04:25:19;;;;;;;1.88;1.63;;;16.40;99.90;;;;;;5135610;28;20031;-87
2023/08/05 04:29:18;;;;;;;3.83;2.10;;;16.40;99.90;;;;;;5145846;28;20039;-88
2023/08/05 04:41:03;;;;;;;3.20;2.10;;;16.50;99.90;;;;;;5188556;28;20032;-86
2023/08/05 04:48:04;;;;;;;;;;;16.60;99.90;;;;;;5228254;22;20413;-67
2023/08/05 04:50:44;;;;;;;5.05;2.15;;;16.50;99.90;;;;;;5169267;28;19939;-70
2023/08/05 04:53:18;;;;;;;3.08;2.25;;;16.30;99.90;;;;;;5183823;28;20041;-69
2023/08/05 04:55:49;;;;;;;2.42;2.00;;;16.20;99.90;;;;;;5199628;28;20351;-70
2023/08/05 04:58:21;;;;;;;3.28;2.17;;;16.10;99.90;;;;;;5167415;28;20051;-71
2023/08/05 05:00:59;;;;;;;3.67;2.20;;;16.10;99.90;;;;;;5191827;28;20055;-71
2023/08/05 05:03:31;;;;;;;2.58;2.35;;;16.00;99.90;;;;;;5179242;28;20071;-70
2023/08/05 05:06:07;;;;;;;2.50;2.30;;;16.00;99.90;;;;;;5161831;28;20932;-71
2023/08/05 05:08:38;;;;;;;3.22;2.47;;;16.00;99.90;;;;;;5183902;28;20130;-70
2023/08/05 05:11:10;;;;;;;4.32;2.67;;;16.00;99.90;;;;;;5189619;28;20449;-70
2023/08/05 05:13:43;;;;;;;4.40;3.00;;;16.00;99.90;;;;;;5160493;28;20037;-68
2023/08/05 05:16:18;;;;;;;4.03;2.90;;;16.00;99.90;;;;;;5188698;28;20041;-68
2023/08/05 05:18:49;;;;;;;;;;;15.90;99.90;;;;;;5180015;28;20048;-68
2023/08/05 05:21:22;;;;;;;3.65;3.05;;;15.90;99.90;;;;;;5176746;28;19913;-67
2023/08/05 05:23:54;;;;;;;2.72;2.50;;;15.90;99.90;;;;;;5168173;28;20054;-67
2023/08/05 05:26:25;;;;;;;4.18;2.63;;;16.00;99.90;;;;;;5159579;28;20051;-66
2023/08/05 05:28:57;;;;;;;2.75;2.45;;;16.00;99.90;;;;;;5158914;28;20038;-66
2023/08/05 05:31:31;;;;;;;4.70;2.25;;;16.00;99.90;;;;;;5161419;28;20034;-67
2023/08/05 05:34:05;;;;;;;4.68;2.50;;;16.00;99.90;;;;;;5168139;28;20116;-66
2023/08/05 05:36:37;;;;;;;4.88;2.55;;;16.10;99.90;;;;;;5145370;28;20050;-68
2023/08/05 05:39:09;;;;;;;2.63;2.42;;;16.10;99.90;;;;;;5167491;28;20055;-66
2023/08/05 05:41:43;;;;;;;3.00;2.08;;;16.10;99.90;;;;;;5172280;28;20087;-69
2023/08/05 05:44:20;;;;;;;2.83;2.45;;;16.20;99.90;;;;;;5162842;28;20499;-70
2023/08/05 05:46:51;;;;;;;3.97;2.30;;;16.20;99.90;;;;;;5155105;28;20042;-68
2023/08/05 05:49:26;;;;;;;3.58;2.63;;;16.20;99.90;;;;;;5144871;28;20419;-69
2023/08/05 05:51:59;;;;;;;3.45;2.60;;;16.20;99.90;;;;;;5166202;28;20547;-68
2023/08/05 05:54:33;;;;;;;2.35;2.17;;;16.20;99.90;;;;;;5161563;28;20215;-68
2023/08/05 05:57:06;;;;;;;2.90;2.60;;;16.10;99.90;;;;;;5180124;28;20044;-68
2023/08/05 05:59:39;;;;;;;3.05;2.75;;;16.10;99.90;;;;;;5175905;28;20037;-70
2023/08/05 06:02:13;;;;;;;2.58;2.38;;;16.10;99.90;;;;;;5189395;28;20030;-70
2023/08/05 06:04:47;;;;;;;2.97;2.17;;;16.10;99.90;;;;;;5180679;28;20079;-68
2023/08/05 06:07:24;;;;;;;3.10;2.43;;;16.10;99.90;;;;;;5155719;28;20046;-68
2023/08/05 06:09:55;;;;;;;3.17;2.83;;;16.10;99.90;;;;;;5166120;28;20025;-68
2023/08/05 06:12:32;;;;;;;3.10;2.53;;;16.20;99.90;;;;;;5194641;28;20041;-68
2023/08/05 06:15:07;;;;;;;3.13;2.25;;;16.20;99.90;;;;;;5173454;28;20354;-70
2023/08/05 06:17:42;;;;;;;2.55;2.30;;;16.10;99.90;;;;;;5156460;28;20037;-69
2023/08/05 06:20:15;;;;;;;2.75;2.55;;;16.20;99.90;;;;;;5182756;28;20022;-68
2023/08/05 06:22:47;;;;;;;3.67;2.30;;;16.10;99.90;;;;;;5178059;28;20048;-68
2023/08/05 06:25:21;;;;;;;3.72;3.17;;;16.10;99.90;;;;;;5173687;28;20053;-67
2023/08/05 06:27:59;;;;;;;2.85;2.55;;;16.10;99.90;;;;;;5175430;28;20497;-67
2023/08/05 06:30:34;;;;;;;2.67;2.25;;;16.10;99.90;;;;;;5177533;28;20046;-68
2023/08/05 06:33:05;;;;;;;;;;;16.00;99.90;;;;;;5176776;28;20053;-68
2023/08/05 06:35:39;;;;;;;3.10;2.63;;;16.10;99.90;;;;;;5193464;28;19921;-68
2023/08/05 06:38:11;;;;;;;3.45;3.08;;;16.10;99.90;;;;;;5172283;28;20037;-67
2023/08/05 06:40:51;;;;;;;3.70;2.92;;;16.10;99.90;;;;;;5162324;28;20048;-66
2023/08/05 06:43:26;;;;;;;2.72;2.53;;;16.10;99.90;;;;;;5180162;28;20057;-67
2023/08/05 06:45:57;;;;;;;5.28;2.47;;;16.10;99.90;;;;;;5160949;28;20225;-67
2023/08/05 06:48:34;;;;;;;3.35;2.47;;;16.10;99.90;;;;;;5146351;28;20087;-65
2023/08/05 06:51:08;;;;;;;2.78;2.17;;;16.10;99.90;;;;;;5160628;28;20049;-64
2023/08/05 06:53:45;;;;;;;4.45;3.00;;;16.10;99.90;;;;;;5160561;28;20056;-66
2023/08/05 06:56:20;;;;;;;2.70;2.50;;;16.10;99.90;;;;;;5174828;28;20568;-65
2023/08/05 06:58:54;;;;;;;;;;;16.10;99.90;;;;;;5145668;28;20053;-66
2023/08/05 07:01:28;;;;;;;4.45;2.17;;;16.10;99.90;;;;;;5174233;28;19923;-63
2023/08/05 07:03:59;;;;;;;2.58;2.38;;;16.10;99.90;;;;;;5162350;28;20353;-66
2023/08/05 07:06:34;;;;;;;2.40;2.20;;;16.10;99.90;;;;;;5179286;28;20041;-65
2023/08/05 07:09:08;;;;;;;4.28;2.70;;;16.20;99.90;;;;;;5136956;28;20298;-65
2023/08/05 07:11:46;;;;;;;3.00;2.42;;;16.20;99.90;;;;;;5159558;28;20113;-64
2023/08/05 07:14:18;;;;;;;3.00;2.42;;;16.20;99.90;;;;;;5143910;28;20064;-64
2023/08/05 07:16:53;;;;;;;2.90;2.28;;;16.30;99.90;;;;;;5178085;28;20055;-65
2023/08/05 07:19:27;;;;;;;;;;;16.30;99.90;;;;;;5146967;28;20531;-65
2023/08/05 07:21:58;;;;;;;2.40;2.20;;;16.40;99.90;;;;;;5182865;28;19928;-66
2023/08/05 07:24:30;;;;;;;3.75;2.10;;;16.40;99.90;;;;;;5178365;28;20040;-66
2023/08/05 07:27:04;;;;;;;2.20;2.00;;;16.50;99.90;;;;;;5165382;28;20048;-64
2023/08/05 07:29:38;;;;;;;2.88;2.55;;;16.50;99.90;;;;;;5167868;28;20045;-66
2023/08/05 07:32:09;;;;;;;5.60;2.28;;;16.60;99.90;;;;;;5190766;28;20045;-66
2023/08/05 07:34:41;;;;;;;2.28;2.08;;;16.70;99.90;;;;;;5164058;28;20037;-64
2023/08/05 07:37:14;;;;;;;2.60;2.40;;;16.80;99.90;;;;;;5161726;28;20364;-63
2023/08/05 07:39:48;;;;;;;4.63;2.38;;;16.80;99.90;;;;;;5162964;28;20342;-66
2023/08/05 07:42:24;;;;;;;3.05;2.45;;;16.90;99.90;;;;;;5179252;28;20047;-66
2023/08/05 07:45:00;;;;;;;1.80;1.70;;;17.00;99.90;;;;;;5174954;28;20041;-65
2023/08/05 07:47:39;;;;;;;2.53;1.83;;;17.00;99.90;;;;;;5164634;28;20059;-65
2023/08/05 07:50:21;;;;;;;2.00;1.90;;;17.00;99.90;;;;;;5183055;28;20075;-65
2023/08/05 07:52:54;;;;;;;2.10;1.90;;;17.10;99.90;;;;;;5182189;28;20057;-65
2023/08/05 07:55:30;;;;;;;3.67;1.80;;;17.10;99.90;;;;;;5160866;28;20045;-66
2023/08/05 07:58:02;;;;;;;1.88;1.77;;;17.10;99.90;;;;;;5144443;28;20219;-66
2023/08/05 08:00:39;;;;;;;2.03;1.83;;;17.20;99.90;;;;;;5144950;28;20049;-64
2023/08/05 08:03:12;;;;;;;1.88;1.77;;;17.10;99.90;;;;;;5180473;28;20048;-63
2023/08/05 08:05:52;;;;;;;5.18;2.28;;;17.20;99.90;;;;;;5179289;28;20033;-66
2023/08/05 08:08:25;;;;;;;2.42;1.88;;;17.20;99.90;;;;;;5173838;28;20204;-65
2023/08/05 08:10:57;;;;;;;2.83;2.30;;;17.20;99.90;;;;;;5163236;28;20310;-65
2023/08/05 08:13:28;;;;;;;2.00;1.90;;;17.20;99.90;;;;;;5190984;28;20234;-67
2023/08/05 08:16:03;;;;;;;3.10;2.40;;;17.20;99.90;;;;;;5157181;28;20045;-65
2023/08/05 08:18:38;;;;;;;3.15;2.60;;;17.20;99.90;;;;;;5167656;28;20046;-67
2023/08/05 08:21:10;;;;;;;2.60;2.35;;;17.20;99.90;;;;;;5165212;28;20237;-66
2023/08/05 08:23:42;;;;;;;2.55;2.10;;;17.20;99.90;;;;;;5183563;28;20032;-65
2023/08/05 08:26:18;;;;;;;4.05;2.60;;;17.20;99.90;;;;;;5161724;28;20131;-65
2023/08/05 08:28:54;;;;;;;3.00;2.80;;;17.30;99.90;;;;;;5156243;28;20056;-67
2023/08/05 08:31:30;;;;;;;3.13;2.58;;;17.30;99.90;;;;;;5163057;28;20322;-66
2023/08/05 08:34:04;;;;;;;2.90;2.63;;;17.30;99.90;;;;;;5183532;28;20029;-64
2023/08/05 08:36:41;;;;;;;3.42;3.13;;;17.30;99.90;;;;;;5131063;28;20056;-67
2023/08/05 08:39:14;;;;;;;6.35;3.00;;;17.20;99.90;;;;;;5180933;28;20076;-66
2023/08/05 08:41:49;;;;;;;3.73;3.13;;;17.10;99.90;;;;;;5163145;28;20049;-66
2023/08/05 08:44:22;;;;;;;3.53;3.22;;;17.00;99.90;;;;;;5166456;28;20272;-67
2023/08/05 08:46:54;;;;;;;3.30;3.00;;;16.90;99.90;;;;;;5157858;28;20083;-67
2023/08/05 08:49:28;;;;;;;3.50;3.20;;;16.90;99.90;;;;;;5164440;28;20041;-66
2023/08/05 08:52:02;;;;;;;4.55;4.07;;;16.80;99.90;;;;;;5180657;28;20048;-64
2023/08/05 08:54:34;;;;;;;3.67;3.38;;;16.80;99.90;;;;;;5164204;28;20041;-66
2023/08/05 08:57:13;;;;;;;3.80;3.33;;;16.70;99.90;;;;;;5162218;28;20041;-66
2023/08/05 08:59:45;;;;;;;4.00;3.53;;;16.60;99.90;;;;;;5161560;28;20046;-68
2023/08/05 09:02:29;;;;;;;3.80;3.40;;;16.60;99.90;;;;;;5167683;28;20049;-66
2023/08/05 09:05:03;;;;;;;4.57;3.35;;;16.60;99.90;;;;;;5165066;28;20037;-66
2023/08/05 09:07:37;;;;;;;4.65;3.67;;;16.50;99.90;;;;;;5181999;28;20346;-67
2023/08/05 09:10:12;;;;;;;4.25;3.78;;;16.50;99.90;;;;;;5177779;28;20045;-67
2023/08/05 09:12:44;;;;;;;5.95;4.07;;;16.50;99.90;;;;;;5164473;28;20122;-68
2023/08/05 09:15:19;;;;;;;3.95;3.42;;;16.50;99.90;;;;;;5172963;28;20071;-68
2023/08/05 09:17:59;;;;;;;7.05;4.75;;;16.50;99.90;;;;;;5161987;28;20030;-67
2023/08/05 09:20:36;;;;;;;6.05;3.67;;;16.50;99.90;;;;;;5192747;28;20047;-66
2023/08/05 09:23:13;;;;;;;4.55;3.50;;;16.50;99.90;;;;;;5180410;28;20029;-68
2023/08/05 09:25:53;;;;;;;4.93;3.20;;;16.50;99.90;;;;;;5159660;28;20029;-68
2023/08/05 09:28:35;;;;;;;3.65;3.13;;;16.50;99.90;;;;;;5175626;28;20368;-67
2023/08/05 09:31:16;;;;;;;3.47;3.00;;;16.60;99.90;;;;;;5171627;28;20100;-68
2023/08/05 09:33:50;;;;;;;3.25;2.83;;;16.60;99.90;;;;;;5163419;28;20249;-67
2023/08/05 09:36:23;;;;;;;3.60;3.13;;;16.60;99.90;;;;;;5161467;28;20053;-68
2023/08/05 09:39:10;;;;;;;3.30;3.00;;;16.70;99.90;;;;;;5181392;28;20033;-70
2023/08/05 09:41:56;;;;;;;3.38;2.70;;;16.60;99.90;;;;;;5196841;28;20052;-68
2023/08/05 09:44:30;;;;;;;3.05;2.85;;;16.60;99.90;;;;;;5176287;28;20058;-70
2023/08/05 09:47:07;;;;;;;3.42;2.80;;;16.60;99.90;;;;;;5148633;28;20064;-70
2023/08/05 09:49:42;;;;;;;2.63;2.42;;;16.50;99.90;;;;;;5161644;28;20358;-70
2023/08/05 09:52:17;;;;;;;2.60;2.20;;;16.50;99.90;;;;;;5176649;28;20056;-72
2023/08/05 09:55:05;;;;;;;2.20;2.00;;;16.50;99.90;;;;;;5181132;28;20032;-71
2023/08/05 09:57:38;;;;;;;3.72;2.55;;;16.50;99.90;;;;;;5176651;28;20041;-71
2023/08/05 10:00:14;;;;;;;2.63;2.40;;;16.40;99.90;;;;;;5184142;28;20041;-70
2023/08/05 10:02:46;;;;;;;2.08;1.88;;;16.40;99.90;;;;;;5160016;28;20294;-71
2023/08/05 10:05:26;;;;;;;2.28;2.08;;;16.40;99.90;;;;;;5164397;28;20068;-71
2023/08/05 10:08:01;;;;;;;2.33;2.13;;;16.40;99.90;;;;;;5162653;28;20059;-73
2023/08/05 10:10:35;;;;;;;3.22;2.58;;;16.40;99.90;;;;;;5143953;28;20040;-71
2023/08/05 10:13:14;;;;;;;;;;;16.50;99.90;;;;;;5161332;28;20042;-71
2023/08/05 10:15:52;;;;;;;2.38;1.77;;;16.40;99.90;;;;;;5166176;28;19943;-70
2023/08/05 10:18:26;;;;;;;2.33;1.98;;;16.40;99.90;;;;;;5177633;28;20238;-69
2023/08/05 10:21:05;;;;;;;2.15;1.98;;;16.40;99.90;;;;;;5179511;28;20051;-69
2023/08/05 10:23:39;;;;;;;1.90;1.80;;;16.50;99.90;;;;;;5162950;28;20245;-70
2023/08/05 10:26:13;;;;;;;1.60;1.50;;;16.60;99.90;;;;;;5162474;28;20314;-69
2023/08/05 10:28:45;;;;;;;1.63;1.52;;;16.70;99.90;;;;;;5180729;28;20047;-68
2023/08/05 10:31:38;;;;;;;1.48;1.38;;;16.60;99.90;;;;;;5173022;28;20045;-69
2023/08/05 10:34:17;;;;;;;1.50;1.40;;;16.60;99.90;;;;;;5154079;28;20037;-69
2023/08/05 10:36:56;;;;;;;1.60;1.50;;;16.60;99.90;;;;;;5158317;28;20061;-69
2023/08/05 10:39:39;;;;;;;1.63;1.30;;;16.60;99.90;;;;;;5180601;28;20042;-68
2023/08/05 10:42:32;;;;;;;1.77;1.50;;;16.60;99.90;;;;;;5171855;28;20350;-68
2023/08/05 10:45:14;;;;;;;1.63;1.52;;;16.60;99.90;;;;;;5192475;28;20037;-69
2023/08/05 10:47:52;;;;;;;1.58;1.48;;;16.50;99.90;;;;;;5177395;28;20370;-65
2023/08/05 10:50:37;;;;;;;1.48;1.38;;;16.50;99.90;;;;;;5161532;28;20223;-68
2023/08/05 10:53:17;;;;;;;1.42;1.33;;;16.40;99.90;;;;;;5157791;28;20519;-67
2023/08/05 10:55:55;;;;;;;2.88;1.55;;;16.40;99.90;;;;;;5167021;28;20045;-65
2023/08/05 10:58:35;;;;;;;1.50;1.40;;;16.40;99.90;;;;;;5164398;28;20045;-72
2023/08/05 11:01:12;;;;;;;2.00;1.90;;;16.30;99.90;;;;;;5145766;28;20045;-70
2023/08/05 11:03:49;;;;;;;3.08;1.98;;;16.30;99.90;;;;;;5145386;28;20038;-71
2023/08/05 11:06:28;;;;;;;2.53;1.85;;;16.30;99.90;;;;;;5161078;28;20026;-72
2023/08/05 11:09:01;;;;;;;1.77;1.67;;;16.30;99.90;;;;;;5170350;28;20029;-71
2023/08/05 11:11:33;;;;;;;2.10;1.98;;;16.40;99.90;;;;;;5199095;28;20533;-70
2023/08/05 11:14:08;;;;;;;2.20;2.00;;;16.40;99.90;;;;;;5165048;28;20050;-69
2023/08/05 11:16:47;;;;;;;3.90;2.10;;;16.50;99.90;;;;;;5177274;28;20029;-70
2023/08/05 11:19:22;;;;;;;1.88;1.77;;;16.50;99.90;;;;;;5175301;28;20034;-69
2023/08/05 11:21:57;;;;;;;1.67;1.40;;;16.40;99.90;;;;;;5165075;28;20037;-70
2023/08/05 11:24:31;;;;;;;1.55;1.45;;;16.40;99.90;;;;;;5164548;28;20048;-69
2023/08/05 11:27:08;;;;;;;1.83;1.73;;;16.30;99.90;;;;;;5169605;28;20041;-70
2023/08/05 11:29:45;;;;;;;1.60;1.50;;;16.30;99.90;;;;;;5182864;28;20056;-70
2023/08/05 11:32:18;;;;;;;1.70;1.60;;;16.40;99.90;;;;;;5156448;28;20041;-70
2023/08/05 11:35:05;;;;;;;1.80;1.70;;;16.30;99.90;;;;;;5183260;28;20246;-70
2023/08/05 11:37:39;;;;;;;2.53;2.35;;;16.30;99.90;;;;;;5151705;28;20037;-71
2023/08/05 11:40:12;;;;;;;1.42;1.33;;;16.30;99.90;;;;;;5201486;28;20097;-71
2023/08/05 11:42:49;;;;;;;2.42;1.80;;;16.30;99.90;;;;;;5183377;28;20708;-71
2023/08/05 11:45:21;;;;;;;2.85;1.70;;;16.20;99.90;;;;;;5164962;28;20055;-68
2023/08/05 11:47:53;;;;;;;1.70;1.60;;;16.20;99.90;;;;;;5181554;28;20030;-69
2023/08/05 11:50:36;;;;;;;2.03;1.73;;;16.10;99.90;;;;;;5164205;28;20050;-72
2023/08/05 11:53:19;;;;;;;1.73;1.63;;;16.10;99.90;;;;;;5164054;28;20218;-72
2023/08/05 11:55:52;;;;;;;1.90;1.80;;;16.10;99.90;;;;;;5181603;28;20046;-73
2023/08/05 11:58:37;;;;;;;2.08;1.60;;;16.10;99.90;;;;;;5183782;28;20051;-71
2023/08/05 12:01:09;;;;;;;1.75;1.65;;;16.10;99.90;;;;;;5180265;28;20041;-71
2023/08/05 12:03:44;;;;;;;1.65;1.55;;;16.20;99.90;;;;;;5184395;28;20044;-72
2023/08/05 12:06:19;;;;;;;1.52;1.42;;;16.10;99.90;;;;;;5150414;28;20052;-72
2023/08/05 12:08:52;;;;;;;1.30;1.20;;;16.10;99.90;;;;;;5167119;28;20091;-72
2023/08/05 12:11:24;;;;;;;1.45;1.35;;;16.20;99.90;;;;;;5199365;28;20037;-72
2023/08/05 12:14:03;;;;;;;2.05;1.42;;;16.30;99.90;;;;;;5182778;28;20041;-71
2023/08/05 12:16:35;;;;;;;1.40;1.30;;;16.30;99.90;;;;;;5164879;28;20048;-72
2023/08/05 12:19:15;;;;;;;1.40;1.30;;;16.40;99.90;;;;;;5177263;28;20053;-72
2023/08/05 12:21:49;;;;;;;1.52;1.42;;;16.40;99.90;;;;;;5166715;28;20056;-72
2023/08/05 12:24:26;;;;;;;;;;;16.40;99.90;;;;;;5167666;28;20227;-71
2023/08/05 12:26:59;;;;;;;1.27;1.17;;;16.40;99.90;;;;;;5183338;28;19908;-73
2023/08/05 12:29:31;;;;;;;2.55;1.40;;;16.40;99.90;;;;;;5182798;28;20033;-72
2023/08/05 12:32:05;;;;;;;1.45;1.35;;;16.40;99.90;;;;;;5181664;28;20042;-73
2023/08/05 12:34:36;;;;;;;1.20;1.10;;;16.40;99.90;;;;;;5183179;28;20067;-73
2023/08/05 12:37:10;;;;;;;1.15;1.15;;;16.50;99.90;;;;;;5166175;28;20046;-73
2023/08/05 12:39:45;;;;;;;1.42;1.20;;;16.60;99.90;;;;;;5200369;28;20047;-72
2023/08/05 12:42:16;;;;;;;1.50;1.40;;;16.50;99.90;;;;;;5163047;28;20037;-71
2023/08/05 12:44:49;;;;;;;1.10;1.00;;;16.50;99.90;;;;;;5165734;28;20056;-71
2023/08/05 12:47:21;;;;;;;1.35;1.25;;;16.50;99.90;;;;;;5179766;28;20037;-72
2023/08/05 12:49:54;;;;;;;1.08;1.00;;;16.50;99.90;;;;;;5161122;28;20049;-72
2023/08/05 12:52:28;;;;;;;1.67;1.20;;;16.60;99.90;;;;;;5194333;28;20029;-72
2023/08/05 12:54:59;;;;;;;1.30;1.20;;;16.60;99.90;;;;;;5149029;28;20041;-73
2023/08/05 12:57:32;;;;;;;1.30;1.20;;;16.60;99.90;;;;;;5152968;28;20052;-73
2023/08/05 13:00:07;;;;;;;1.33;1.23;;;16.60;99.90;;;;;;5192533;28;20057;-73
2023/08/05 13:02:41;;;;;;;1.20;1.20;;;16.50;99.90;;;;;;5152176;28;20366;-73
2023/08/05 13:05:14;;;;;;;;;;;16.50;99.90;;;;;;5131875;28;20045;-73
2023/08/05 13:07:46;;;;;;;1.35;1.25;;;16.50;99.90;;;;;;5147887;28;19921;-72
2023/08/05 13:10:19;;;;;;;1.50;1.40;;;16.50;99.90;;;;;;5176046;28;20049;-72
2023/08/05 13:12:50;;;;;;;1.40;1.30;;;16.50;99.90;;;;;;5147704;28;20248;-73
2023/08/05 13:15:24;;;;;;;1.40;1.30;;;16.50;99.90;;;;;;5179439;28;20033;-72
2023/08/05 13:17:56;;;;;;;3.10;1.58;;;16.50;99.90;;;;;;5181239;28;20037;-70
2023/08/05 13:20:30;;;;;;;1.55;1.45;;;16.50;99.90;;;;;;5181814;28;20496;-72
2023/08/05 13:23:01;;;;;;;1.42;1.33;;;16.50;99.90;;;;;;5182943;28;20033;-72
2023/08/05 13:25:33;;;;;;;1.60;1.50;;;16.50;99.90;;;;;;5199109;28;20039;-71
2023/08/05 13:28:07;;;;;;;1.50;1.40;;;16.60;99.90;;;;;;5178239;28;20056;-72
2023/08/05 13:30:41;;;;;;;1.52;1.42;;;16.70;99.90;;;;;;5175145;28;20051;-71
2023/08/05 13:33:24;;;;;;;1.63;1.52;;;16.70;99.90;;;;;;5165227;28;20045;-70
2023/08/05 13:35:58;;;;;;;1.48;1.38;;;16.70;99.90;;;;;;5168295;28;20033;-69
2023/08/05 13:38:30;;;;;;;1.67;1.55;;;16.70;99.90;;;;;;5181210;28;20033;-71
2023/08/05 13:41:07;;;;;;;1.70;1.60;;;16.80;99.90;;;;;;5181636;28;20044;-68
2023/08/05 13:43:39;;;;;;;1.60;1.50;;;16.80;99.90;;;;;;5181969;28;20238;-67
2023/08/05 13:46:11;;;;;;;2.25;1.45;;;16.90;99.90;;;;;;5163719;28;20212;-66
2023/08/05 13:48:48;;;;;;;1.45;1.35;;;17.00;99.90;;;;;;5145813;28;20057;-68
2023/08/05 13:51:21;;;;;;;1.58;1.48;;;17.10;99.90;;;;;;5156076;28;20030;-67
2023/08/05 13:53:58;;;;;;;1.35;1.25;;;17.10;99.90;;;;;;5172742;28;20060;-68
2023/08/05 13:56:33;;;;;;;1.30;1.20;;;17.20;99.90;;;;;;5180514;28;20048;-70
2023/08/05 13:59:05;;;;;;;1.30;1.20;;;17.30;99.90;;;;;;5161031;28;20048;-67
2023/08/05 14:01:36;;;;;;;1.20;1.10;;;17.40;99.90;;;;;;5147724;28;20056;-66